createdAt,value
2018-12-31T00:01:48.651Z,4.90
2018-12-31T00:04:18.003Z,4.90
2018-12-31T00:06:47.018Z,4.90
2018-12-31T00:09:15.877Z,5.00
2018-12-31T00:11:44.870Z,5.00
2018-12-31T00:14:13.720Z,5.00
2018-12-31T00:16:48.897Z,5.00
2018-12-31T00:19:17.719Z,5.00
2018-12-31T00:21:46.689Z,4.90
2018-12-31T00:24:15.612Z,4.80
2018-12-31T00:26:44.691Z,4.80
2018-12-31T00:29:13.788Z,4.80
2018-12-31T00:31:42.600Z,4.80
2018-12-31T00:34:11.499Z,4.80
2018-12-31T00:36:40.349Z,4.80
2018-12-31T00:39:10.802Z,4.70
2018-12-31T00:41:39.607Z,4.80
2018-12-31T00:44:09.035Z,4.80
2018-12-31T00:46:38.022Z,4.80
2018-12-31T00:49:06.899Z,4.80
2018-12-31T00:51:35.713Z,4.80
2018-12-31T00:54:04.508Z,4.80
2018-12-31T00:56:33.325Z,4.70
2018-12-31T00:59:02.524Z,4.70
2018-12-31T01:01:31.382Z,4.70
2018-12-31T01:04:00.351Z,4.80
2018-12-31T01:06:29.356Z,4.70
2018-12-31T01:08:58.512Z,4.70
2018-12-31T01:11:27.396Z,4.70
2018-12-31T01:13:56.368Z,4.80
2018-12-31T01:16:25.257Z,4.80
2018-12-31T01:18:54.064Z,4.80
2018-12-31T01:21:23.175Z,4.80
2018-12-31T01:23:52.112Z,4.80
2018-12-31T01:26:21.474Z,4.80
2018-12-31T01:28:50.500Z,4.90
2018-12-31T01:31:19.552Z,4.90
2018-12-31T01:33:48.392Z,4.90
2018-12-31T01:36:17.238Z,4.90
2018-12-31T01:38:46.074Z,4.90
2018-12-31T01:41:14.944Z,4.90
2018-12-31T01:43:43.869Z,4.90
2018-12-31T01:46:12.789Z,5.00
2018-12-31T01:48:41.617Z,4.90
2018-12-31T01:51:11.519Z,4.90
2018-12-31T01:53:40.546Z,4.90
2018-12-31T01:56:09.889Z,4.90
2018-12-31T01:58:38.790Z,4.90
2018-12-31T02:01:07.817Z,4.90
2018-12-31T02:03:36.701Z,4.90
2018-12-31T02:06:05.900Z,4.90
2018-12-31T02:08:34.811Z,4.90
2018-12-31T02:11:03.881Z,4.90
2018-12-31T02:13:32.751Z,4.90
2018-12-31T02:16:01.857Z,4.90
2018-12-31T02:18:30.665Z,4.90
2018-12-31T02:20:59.491Z,4.90
2018-12-31T02:23:28.317Z,4.90
2018-12-31T02:25:57.194Z,4.90
2018-12-31T02:28:26.276Z,4.90
2018-12-31T02:30:55.042Z,4.90
2018-12-31T02:33:23.976Z,5.00
2018-12-31T02:35:52.919Z,5.00
2018-12-31T02:38:21.693Z,5.00
2018-12-31T02:40:50.545Z,5.00
2018-12-31T02:43:19.374Z,5.00
2018-12-31T02:45:48.483Z,5.00
2018-12-31T02:48:17.290Z,5.00
2018-12-31T02:50:46.163Z,4.90
2018-12-31T02:53:15.264Z,5.00
2018-12-31T02:55:44.055Z,4.90
2018-12-31T02:58:12.856Z,4.90
2018-12-31T03:00:41.658Z,5.00
2018-12-31T03:03:10.511Z,5.00
2018-12-31T03:05:39.407Z,5.00
2018-12-31T03:08:08.272Z,4.90
2018-12-31T03:10:37.153Z,4.90
2018-12-31T03:13:06.139Z,4.90
2018-12-31T03:15:35.237Z,5.00
2018-12-31T03:18:04.149Z,4.90
2018-12-31T03:20:35.037Z,4.90
2018-12-31T03:23:03.790Z,5.00
2018-12-31T03:25:33.537Z,5.00
2018-12-31T03:28:02.464Z,5.00
2018-12-31T03:30:31.451Z,5.00
2018-12-31T03:33:00.328Z,5.00
2018-12-31T03:35:29.187Z,5.00
2018-12-31T03:37:58.566Z,5.00
2018-12-31T03:40:27.858Z,5.00
2018-12-31T03:42:56.928Z,4.90
2018-12-31T03:45:25.764Z,5.00
2018-12-31T03:47:54.608Z,5.00
2018-12-31T03:50:23.419Z,5.00
2018-12-31T03:52:52.412Z,5.00
2018-12-31T03:55:21.559Z,5.00
2018-12-31T03:57:50.811Z,5.00
2018-12-31T04:00:20.017Z,5.00
2018-12-31T04:02:48.997Z,5.00
2018-12-31T04:05:17.815Z,5.00
2018-12-31T04:07:52.925Z,5.00
2018-12-31T04:10:17.552Z,5.00
2018-12-31T04:12:46.550Z,5.00
2018-12-31T04:15:15.893Z,5.00
2018-12-31T04:17:45.037Z,5.00
2018-12-31T04:20:14.339Z,5.00
2018-12-31T04:22:43.254Z,5.00
2018-12-31T04:25:12.200Z,5.00
2018-12-31T04:27:41.029Z,5.00
2018-12-31T04:30:09.892Z,5.10
2018-12-31T04:32:39.054Z,5.10
2018-12-31T04:35:07.943Z,5.10
2018-12-31T04:37:36.820Z,5.10
2018-12-31T04:40:05.899Z,5.10
2018-12-31T04:42:34.780Z,5.10
2018-12-31T04:45:04.084Z,5.10
2018-12-31T04:47:32.884Z,5.10
2018-12-31T04:50:01.938Z,5.10
2018-12-31T04:52:30.781Z,5.10
2018-12-31T04:54:59.688Z,5.10
2018-12-31T04:57:28.631Z,5.10
2018-12-31T04:59:57.900Z,5.10
2018-12-31T05:02:26.808Z,5.10
2018-12-31T05:04:56.254Z,5.10
2018-12-31T05:07:25.226Z,5.10
2018-12-31T05:09:54.021Z,5.10
2018-12-31T05:12:22.997Z,5.20
2018-12-31T05:14:52.233Z,5.20
2018-12-31T05:17:21.184Z,5.20
2018-12-31T05:19:50.311Z,5.20
2018-12-31T05:22:19.882Z,5.20
2018-12-31T05:24:49.055Z,5.20
2018-12-31T05:27:17.881Z,5.20
2018-12-31T05:29:46.830Z,5.10
2018-12-31T05:32:15.726Z,5.10
2018-12-31T05:34:45.616Z,5.10
2018-12-31T05:37:14.485Z,5.10
2018-12-31T05:39:43.762Z,5.10
2018-12-31T05:42:13.896Z,5.10
2018-12-31T05:44:42.795Z,5.10
2018-12-31T05:47:12.608Z,5.10
2018-12-31T05:49:41.505Z,5.20
2018-12-31T05:52:10.259Z,5.10
2018-12-31T05:54:40.176Z,5.10
2018-12-31T05:57:08.994Z,5.10
2018-12-31T05:59:37.754Z,5.10
2018-12-31T06:02:06.554Z,5.10
2018-12-31T06:04:35.605Z,5.10
2018-12-31T06:07:04.483Z,5.10
2018-12-31T06:09:33.388Z,5.10
2018-12-31T06:12:02.443Z,5.10
2018-12-31T06:14:31.527Z,5.10
2018-12-31T06:17:00.578Z,5.10
2018-12-31T06:19:29.420Z,5.00
2018-12-31T06:21:58.319Z,5.10
2018-12-31T06:24:27.123Z,5.10
2018-12-31T06:26:55.894Z,5.10
2018-12-31T06:29:26.110Z,5.10
2018-12-31T06:31:54.976Z,5.10
2018-12-31T06:34:24.095Z,5.10
2018-12-31T06:36:52.987Z,5.10
2018-12-31T06:39:21.850Z,5.10
2018-12-31T06:41:50.867Z,5.10
2018-12-31T06:44:19.829Z,5.10
2018-12-31T06:46:49.124Z,5.10
2018-12-31T06:49:17.951Z,5.10
2018-12-31T06:51:47.824Z,5.10
2018-12-31T06:54:16.638Z,5.10
2018-12-31T06:56:45.414Z,5.20
2018-12-31T06:59:14.546Z,5.20
2018-12-31T07:01:43.686Z,5.20
2018-12-31T07:04:12.780Z,5.20
2018-12-31T07:06:42.131Z,5.30
2018-12-31T07:09:11.158Z,5.30
2018-12-31T07:11:39.967Z,5.30
2018-12-31T07:14:09.483Z,5.30
2018-12-31T07:16:38.325Z,5.30
2018-12-31T07:19:07.332Z,5.30
2018-12-31T07:21:36.108Z,5.30
2018-12-31T07:24:04.975Z,5.30
2018-12-31T07:26:33.859Z,5.40
2018-12-31T07:29:02.767Z,5.40
2018-12-31T07:31:31.527Z,5.40
2018-12-31T07:34:00.310Z,5.40
2018-12-31T07:36:29.611Z,5.50
2018-12-31T07:38:58.469Z,5.50
2018-12-31T07:41:27.396Z,5.50
2018-12-31T07:43:57.293Z,5.50
2018-12-31T07:46:26.049Z,5.50
2018-12-31T07:48:54.847Z,5.50
2018-12-31T07:51:23.833Z,5.50
2018-12-31T07:53:53.112Z,5.50
2018-12-31T07:56:21.890Z,5.50
2018-12-31T07:58:51.017Z,5.50
2018-12-31T08:01:19.772Z,5.60
2018-12-31T08:03:48.992Z,5.60
2018-12-31T08:06:17.794Z,5.60
2018-12-31T08:08:47.117Z,5.70
2018-12-31T08:11:16.005Z,5.70
2018-12-31T08:13:44.883Z,5.70
2018-12-31T08:16:13.780Z,5.80
2018-12-31T08:18:42.539Z,5.80
2018-12-31T08:21:11.634Z,5.90
2018-12-31T08:23:40.438Z,6.50
2018-12-31T08:26:09.380Z,6.80
2018-12-31T08:28:38.475Z,6.80
2018-12-31T08:31:07.739Z,6.90
2018-12-31T08:33:36.614Z,7.00
2018-12-31T08:36:05.555Z,7.00
2018-12-31T08:38:34.418Z,7.20
2018-12-31T08:41:03.508Z,7.20
2018-12-31T08:43:32.688Z,7.30
2018-12-31T08:46:01.478Z,7.20
2018-12-31T08:48:30.731Z,6.90
2018-12-31T08:50:59.879Z,6.60
2018-12-31T08:53:28.662Z,6.50
2018-12-31T08:55:57.776Z,6.50
2018-12-31T08:58:26.823Z,6.40
2018-12-31T09:00:55.616Z,6.40
2018-12-31T09:03:25.238Z,6.40
2018-12-31T09:06:13.277Z,6.40
2018-12-31T09:08:43.336Z,6.40
2018-12-31T09:11:13.252Z,6.40
2018-12-31T09:13:42.252Z,6.40
2018-12-31T09:16:11.110Z,6.60
2018-12-31T09:18:40.292Z,6.70
2018-12-31T09:21:09.118Z,6.80
2018-12-31T09:23:38.276Z,6.80
2018-12-31T09:26:07.200Z,6.80
2018-12-31T09:28:36.100Z,6.90
2018-12-31T09:31:05.068Z,7.00
2018-12-31T09:33:35.224Z,7.00
2018-12-31T09:36:04.075Z,7.00
2018-12-31T09:38:32.867Z,7.10
2018-12-31T09:41:01.714Z,7.20
2018-12-31T09:43:30.716Z,7.20
2018-12-31T09:45:59.535Z,7.20
2018-12-31T09:48:28.455Z,7.20
2018-12-31T09:50:57.215Z,7.20
2018-12-31T09:53:26.128Z,7.20
2018-12-31T09:55:55.024Z,7.20
2018-12-31T09:58:24.224Z,7.30
2018-12-31T10:00:53.110Z,7.40
2018-12-31T10:03:22.623Z,7.50
2018-12-31T10:05:51.636Z,7.60
2018-12-31T10:08:20.497Z,7.80
2018-12-31T10:10:49.657Z,7.90
2018-12-31T10:13:18.636Z,7.90
2018-12-31T10:15:47.932Z,7.80
2018-12-31T10:18:16.756Z,7.70
2018-12-31T10:20:46.086Z,7.70
2018-12-31T10:23:14.982Z,7.50
2018-12-31T10:25:43.735Z,7.60
2018-12-31T10:28:12.930Z,7.70
2018-12-31T10:30:41.861Z,7.70
2018-12-31T10:33:10.638Z,7.70
2018-12-31T10:35:39.775Z,7.60
2018-12-31T10:38:08.647Z,7.70
2018-12-31T10:40:37.575Z,7.70
2018-12-31T10:43:07.471Z,7.70
2018-12-31T10:45:36.402Z,7.70
2018-12-31T10:48:05.162Z,7.80
2018-12-31T10:50:34.441Z,7.80
2018-12-31T10:53:03.364Z,7.90
2018-12-31T10:55:32.636Z,7.90
2018-12-31T10:58:01.927Z,7.80
2018-12-31T11:00:30.971Z,7.80
2018-12-31T11:02:59.968Z,7.90
2018-12-31T11:05:28.896Z,7.90
2018-12-31T11:07:57.710Z,7.90
2018-12-31T11:10:26.608Z,7.80
2018-12-31T11:12:55.532Z,7.80
2018-12-31T11:15:24.649Z,7.80
2018-12-31T11:17:53.578Z,7.80
2018-12-31T11:20:22.383Z,7.70
2018-12-31T11:22:52.016Z,7.60
2018-12-31T11:25:21.392Z,7.60
2018-12-31T11:27:53.773Z,7.50
2018-12-31T11:30:22.655Z,7.50
2018-12-31T11:32:51.706Z,7.50
2018-12-31T11:35:20.537Z,7.40
2018-12-31T11:37:49.940Z,7.40
2018-12-31T11:40:18.781Z,7.40
2018-12-31T11:42:47.741Z,7.40
2018-12-31T11:45:16.847Z,7.40
2018-12-31T11:47:46.047Z,7.40
2018-12-31T11:50:15.053Z,7.40
2018-12-31T11:52:44.154Z,7.40
2018-12-31T11:55:13.042Z,7.40
2018-12-31T11:57:41.920Z,7.40
2018-12-31T12:00:11.196Z,7.30
2018-12-31T12:02:40.188Z,7.30
2018-12-31T12:05:09.248Z,7.30
2018-12-31T12:07:38.364Z,7.40
2018-12-31T12:10:07.291Z,7.40
2018-12-31T12:12:36.310Z,7.40
2018-12-31T12:15:05.422Z,7.50
2018-12-31T12:17:34.791Z,7.50
2018-12-31T12:20:03.894Z,7.60
2018-12-31T12:22:33.519Z,7.60
2018-12-31T12:25:02.656Z,7.60
2018-12-31T12:27:31.734Z,7.50
2018-12-31T12:30:00.669Z,7.60
2018-12-31T12:32:29.498Z,7.60
2018-12-31T12:34:58.712Z,7.60
2018-12-31T12:37:28.103Z,7.60
2018-12-31T12:39:56.961Z,7.60
2018-12-31T12:42:25.826Z,7.60
2018-12-31T12:44:54.650Z,7.60
2018-12-31T12:47:24.191Z,7.70
2018-12-31T12:49:53.099Z,7.70
2018-12-31T12:52:21.967Z,7.60
2018-12-31T12:54:50.834Z,7.70
2018-12-31T12:57:19.747Z,7.60
2018-12-31T12:59:48.716Z,7.70
2018-12-31T13:02:17.941Z,7.70
2018-12-31T13:04:46.833Z,7.70
2018-12-31T13:07:15.984Z,7.60
2018-12-31T13:09:44.789Z,7.60
2018-12-31T13:12:13.712Z,7.70
2018-12-31T13:14:43.909Z,7.80
2018-12-31T13:17:12.891Z,7.70
2018-12-31T13:19:42.403Z,7.70
2018-12-31T13:22:11.304Z,7.70
2018-12-31T13:24:40.543Z,7.80
2018-12-31T13:27:09.419Z,7.80
2018-12-31T13:29:40.363Z,7.90
2018-12-31T13:32:09.362Z,7.90
2018-12-31T13:34:39.003Z,7.90
2018-12-31T13:37:07.912Z,8.00
2018-12-31T13:39:37.151Z,8.10
2018-12-31T13:42:06.056Z,8.00
2018-12-31T13:44:34.806Z,7.90
2018-12-31T13:47:03.585Z,8.00
2018-12-31T13:49:33.340Z,8.00
2018-12-31T13:52:03.210Z,7.90
2018-12-31T13:54:32.036Z,7.90
2018-12-31T13:57:01.139Z,7.90
2018-12-31T13:59:30.384Z,7.80
2018-12-31T14:01:59.171Z,7.70
2018-12-31T14:04:28.019Z,7.60
2018-12-31T14:06:57.902Z,7.60
2018-12-31T14:09:27.037Z,7.60
2018-12-31T14:11:56.318Z,7.60
2018-12-31T14:14:25.232Z,7.60
2018-12-31T14:16:54.272Z,7.60
2018-12-31T14:19:23.052Z,7.50
2018-12-31T14:21:51.955Z,7.50
2018-12-31T14:24:21.015Z,7.50
2018-12-31T14:26:49.951Z,7.50
2018-12-31T14:29:18.835Z,7.50
2018-12-31T14:31:48.000Z,7.50
2018-12-31T14:34:16.960Z,7.50
2018-12-31T14:36:46.328Z,7.50
2018-12-31T14:39:15.525Z,7.50
2018-12-31T14:41:44.317Z,7.50
2018-12-31T14:44:14.816Z,7.50
2018-12-31T14:46:43.660Z,7.40
2018-12-31T14:49:12.828Z,7.40
2018-12-31T14:51:41.797Z,7.40
2018-12-31T14:54:10.723Z,7.40
2018-12-31T14:56:39.652Z,7.40
2018-12-31T14:59:08.930Z,7.40
2018-12-31T15:01:38.112Z,7.40
2018-12-31T15:04:07.335Z,7.40
2018-12-31T15:06:38.211Z,7.40
2018-12-31T15:09:07.435Z,7.40
2018-12-31T15:11:36.505Z,7.30
2018-12-31T15:14:05.550Z,7.30
2018-12-31T15:16:34.804Z,7.30
2018-12-31T15:19:04.068Z,7.30
2018-12-31T15:21:33.020Z,7.30
2018-12-31T15:24:01.948Z,7.30
2018-12-31T15:26:31.193Z,7.30
2018-12-31T15:29:00.417Z,7.20
2018-12-31T15:31:29.530Z,7.30
2018-12-31T15:33:58.465Z,7.20
2018-12-31T15:36:27.375Z,7.20
2018-12-31T15:38:56.632Z,7.20
2018-12-31T15:41:25.860Z,7.20
2018-12-31T15:43:55.031Z,7.20
2018-12-31T15:46:24.942Z,7.20
2018-12-31T15:48:53.928Z,7.20
2018-12-31T15:51:23.839Z,7.30
2018-12-31T15:53:52.590Z,7.40
2018-12-31T15:56:24.143Z,7.50
2018-12-31T15:58:53.113Z,7.60
2018-12-31T16:01:21.935Z,7.60
2018-12-31T16:03:50.807Z,7.60
2018-12-31T16:06:19.955Z,7.50
2018-12-31T16:08:49.051Z,7.60
2018-12-31T16:11:18.911Z,7.60
2018-12-31T16:13:48.257Z,7.60
2018-12-31T16:16:17.584Z,7.60
2018-12-31T16:18:46.564Z,7.50
2018-12-31T16:21:15.619Z,7.30
2018-12-31T16:23:44.455Z,7.30
2018-12-31T16:26:13.775Z,7.20
2018-12-31T16:28:43.207Z,7.20
2018-12-31T16:31:12.192Z,7.30
2018-12-31T16:33:41.367Z,7.20
2018-12-31T16:36:10.237Z,7.10
2018-12-31T16:38:39.534Z,7.10
2018-12-31T16:41:08.724Z,7.10
2018-12-31T16:43:38.000Z,7.10
2018-12-31T16:46:06.901Z,7.10
2018-12-31T16:48:36.076Z,7.10
2018-12-31T16:51:04.987Z,7.20
2018-12-31T16:53:33.867Z,7.20
2018-12-31T16:56:02.690Z,7.20
2018-12-31T16:58:31.755Z,7.20
2018-12-31T17:01:00.903Z,7.10
2018-12-31T17:03:30.023Z,7.20
2018-12-31T17:05:58.956Z,7.20
2018-12-31T17:08:27.847Z,7.20
2018-12-31T17:10:56.953Z,7.10
2018-12-31T17:13:25.871Z,7.10
2018-12-31T17:15:54.669Z,7.10
2018-12-31T17:18:23.541Z,7.10
2018-12-31T17:20:52.819Z,7.10
2018-12-31T17:23:21.993Z,7.10
2018-12-31T17:25:50.890Z,7.10
2018-12-31T17:28:19.766Z,7.10
2018-12-31T17:30:49.095Z,7.20
2018-12-31T17:33:18.015Z,7.10
2018-12-31T17:35:46.979Z,7.10
2018-12-31T17:38:16.258Z,7.10
2018-12-31T17:40:45.127Z,7.10
2018-12-31T17:43:14.345Z,7.10
2018-12-31T17:45:43.785Z,7.10
2018-12-31T17:48:12.815Z,7.10
2018-12-31T17:50:41.956Z,7.10
2018-12-31T17:53:10.895Z,7.10
2018-12-31T17:55:40.100Z,7.00
2018-12-31T17:58:08.996Z,7.00
2018-12-31T18:00:37.831Z,7.10
2018-12-31T18:03:07.031Z,7.30
2018-12-31T18:05:35.996Z,7.30
2018-12-31T18:08:05.215Z,7.30
2018-12-31T18:10:34.169Z,7.30
2018-12-31T18:13:03.027Z,7.30
2018-12-31T18:15:31.872Z,7.30
2018-12-31T18:18:00.700Z,7.20
2018-12-31T18:20:29.982Z,7.20
2018-12-31T18:22:58.819Z,7.20
2018-12-31T18:25:27.890Z,7.30
2018-12-31T18:27:56.778Z,7.40
2018-12-31T18:30:25.822Z,7.40
2018-12-31T18:32:55.059Z,7.20
2018-12-31T18:35:23.867Z,7.10
2018-12-31T18:37:52.652Z,7.00
2018-12-31T18:40:22.339Z,7.10
2018-12-31T18:42:51.414Z,7.10
2018-12-31T18:45:22.768Z,7.10
2018-12-31T18:47:51.863Z,7.20
2018-12-31T18:50:20.768Z,7.20
2018-12-31T18:52:50.211Z,7.10
2018-12-31T18:55:19.191Z,7.10
2018-12-31T18:57:48.700Z,7.20
2018-12-31T19:00:17.583Z,7.10
2018-12-31T19:02:46.764Z,7.10
2018-12-31T19:05:15.968Z,7.10
2018-12-31T19:07:44.851Z,7.10
2018-12-31T19:10:14.111Z,7.20
2018-12-31T19:12:43.012Z,7.20
2018-12-31T19:15:11.869Z,7.10
2018-12-31T19:17:40.766Z,7.20
2018-12-31T19:20:09.693Z,7.20
2018-12-31T19:22:38.538Z,7.10
2018-12-31T19:25:07.443Z,7.20
2018-12-31T19:27:36.339Z,7.20
2018-12-31T19:30:05.295Z,7.20
2018-12-31T19:32:34.103Z,7.10
2018-12-31T19:35:02.884Z,7.20
2018-12-31T19:37:32.096Z,7.20
2018-12-31T19:40:00.942Z,7.30
2018-12-31T19:42:29.788Z,7.30
2018-12-31T19:44:58.680Z,7.30
2018-12-31T19:47:27.597Z,7.30
2018-12-31T19:49:58.070Z,7.30
2018-12-31T19:52:26.987Z,7.20
2018-12-31T19:54:58.528Z,7.10
2018-12-31T19:57:26.402Z,7.20
2018-12-31T19:59:55.364Z,7.10
2018-12-31T20:02:24.192Z,7.10
2018-12-31T20:04:53.095Z,7.10
2018-12-31T20:07:22.122Z,7.20
2018-12-31T20:09:51.850Z,7.20
2018-12-31T20:12:20.599Z,7.20
2018-12-31T20:14:50.203Z,7.10
2018-12-31T20:17:18.950Z,7.10
2018-12-31T20:19:48.231Z,7.20
2018-12-31T20:22:17.045Z,7.20
2018-12-31T20:24:45.936Z,7.20
2018-12-31T20:27:15.334Z,7.30
2018-12-31T20:29:44.455Z,7.30
2018-12-31T20:32:13.565Z,7.30
2018-12-31T20:34:42.772Z,7.40
2018-12-31T20:37:11.653Z,7.40
2018-12-31T20:39:40.570Z,7.50
2018-12-31T20:42:09.392Z,7.50
2018-12-31T20:44:38.319Z,7.50
2018-12-31T20:47:07.571Z,7.50
2018-12-31T20:49:36.480Z,7.50
2018-12-31T20:52:05.435Z,7.50
2018-12-31T20:54:34.278Z,7.60
2018-12-31T20:57:03.304Z,7.60
2018-12-31T20:59:32.159Z,7.50
2018-12-31T21:02:01.323Z,7.50
2018-12-31T21:04:30.125Z,7.50
2018-12-31T21:06:59.003Z,7.50
2018-12-31T21:09:28.955Z,7.50
2018-12-31T21:12:02.299Z,7.40
2018-12-31T21:14:31.751Z,7.50
2018-12-31T21:17:00.839Z,7.50
2018-12-31T21:19:29.919Z,7.40
2018-12-31T21:21:59.118Z,7.40
2018-12-31T21:24:28.069Z,7.40
2018-12-31T21:26:57.440Z,7.40
2018-12-31T21:29:27.446Z,7.40
2018-12-31T21:31:56.442Z,7.40
2018-12-31T21:34:25.222Z,7.40
2018-12-31T21:36:54.517Z,7.30
2018-12-31T21:39:23.465Z,7.20
2018-12-31T21:41:52.642Z,7.20
2018-12-31T21:44:21.450Z,7.20
2018-12-31T21:46:50.592Z,7.20
2018-12-31T21:49:20.082Z,7.20
2018-12-31T21:51:49.563Z,7.20
2018-12-31T21:54:18.423Z,7.30
2018-12-31T21:56:47.357Z,7.30
2018-12-31T21:59:17.318Z,7.40
2018-12-31T22:01:46.624Z,7.30
2018-12-31T22:04:15.683Z,7.40
2018-12-31T22:06:44.900Z,7.40
2018-12-31T22:09:14.808Z,7.40
2018-12-31T22:11:44.057Z,7.50
2018-12-31T22:14:12.999Z,7.50
2018-12-31T22:16:41.822Z,7.50
2018-12-31T22:19:10.786Z,7.50
2018-12-31T22:21:39.617Z,7.50
2018-12-31T22:24:08.820Z,7.50
2018-12-31T22:26:37.706Z,7.50
2018-12-31T22:29:06.618Z,7.50
2018-12-31T22:31:35.856Z,7.60
2018-12-31T22:34:05.007Z,7.50
2018-12-31T22:36:34.232Z,7.50
2018-12-31T22:39:03.768Z,7.50
2018-12-31T22:41:33.170Z,7.50
2018-12-31T22:44:02.154Z,7.50
2018-12-31T22:46:30.955Z,7.50
2018-12-31T22:49:00.079Z,7.50
2018-12-31T22:51:28.996Z,7.50
2018-12-31T22:53:58.101Z,7.60
2018-12-31T22:56:27.000Z,7.60
2018-12-31T22:58:55.853Z,7.60
2018-12-31T23:01:25.103Z,7.60
2018-12-31T23:03:54.275Z,7.60
2018-12-31T23:06:23.154Z,7.70
2018-12-31T23:08:52.082Z,7.70
2018-12-31T23:11:21.369Z,7.80
2018-12-31T23:13:50.593Z,7.80
2018-12-31T23:16:23.130Z,7.80
2018-12-31T23:18:52.161Z,7.80
2018-12-31T23:21:21.672Z,7.90
2018-12-31T23:23:50.905Z,7.80
2018-12-31T23:26:20.132Z,7.80
2018-12-31T23:28:52.633Z,7.80
2018-12-31T23:31:19.999Z,7.70
2018-12-31T23:33:48.828Z,7.80
2018-12-31T23:36:17.970Z,7.80
2018-12-31T23:38:47.304Z,7.80
2018-12-31T23:41:16.212Z,7.70
2018-12-31T23:43:45.367Z,7.80
2018-12-31T23:46:14.251Z,7.80
2018-12-31T23:48:43.298Z,7.90
2018-12-31T23:51:12.201Z,7.90
2018-12-31T23:53:42.191Z,8.00
2018-12-31T23:56:12.296Z,7.90
2018-12-31T23:58:41.089Z,8.00
